sensor_id;sensor_type;location;lat;lon;timestamp;P1;durP1;ratioP1;P2;durP2;ratioP2
18190;SDS011;47004;51.366;12.348;2022-07-29T00:01:52;1.43;;;0.90;;
18190;SDS011;47004;51.366;12.348;2022-07-29T00:03:54;2.53;;;1.10;;
18190;SDS011;47004;51.366;12.348;2022-07-29T00:05:56;1.67;;;1.00;;
18190;SDS011;47004;51.366;12.348;2022-07-29T00:07:58;2.97;;;1.00;;
18190;SDS011;47004;51.366;12.348;2022-07-29T00:10:00;1.37;;;1.10;;
18190;SDS011;47004;51.366;12.348;2022-07-29T00:12:02;2.73;;;1.20;;
18190;SDS011;47004;51.366;12.348;2022-07-29T00:14:06;2.40;;;1.10;;
18190;SDS011;47004;51.366;12.348;2022-07-29T00:16:08;0.97;;;0.83;;
18190;SDS011;47004;51.366;12.348;2022-07-29T00:18:09;1.40;;;1.20;;
18190;SDS011;47004;51.366;12.348;2022-07-29T00:20:11;1.07;;;0.77;;
18190;SDS011;47004;51.366;12.348;2022-07-29T00:22:13;2.50;;;0.97;;
18190;SDS011;47004;51.366;12.348;2022-07-29T00:24:15;1.30;;;0.90;;
18190;SDS011;47004;51.366;12.348;2022-07-29T00:26:17;1.90;;;1.30;;
18190;SDS011;47004;51.366;12.348;2022-07-29T00:28:19;2.00;;;1.20;;
18190;SDS011;47004;51.366;12.348;2022-07-29T00:30:22;2.90;;;1.10;;
18190;SDS011;47004;51.366;12.348;2022-07-29T00:32:24;2.70;;;1.03;;
18190;SDS011;47004;51.366;12.348;2022-07-29T00:34:26;3.03;;;1.07;;
18190;SDS011;47004;51.366;12.348;2022-07-29T00:36:46;1.47;;;0.97;;
18190;SDS011;47004;51.366;12.348;2022-07-29T00:38:47;1.90;;;1.10;;
18190;SDS011;47004;51.366;12.348;2022-07-29T00:40:50;1.17;;;0.80;;
18190;SDS011;47004;51.366;12.348;2022-07-29T00:42:52;1.87;;;1.00;;
18190;SDS011;47004;51.366;12.348;2022-07-29T00:44:54;2.37;;;1.10;;
18190;SDS011;47004;51.366;12.348;2022-07-29T00:46:58;2.27;;;1.00;;
18190;SDS011;47004;51.366;12.348;2022-07-29T00:48:59;2.07;;;1.10;;
18190;SDS011;47004;51.366;12.348;2022-07-29T00:51:02;1.47;;;1.00;;
18190;SDS011;47004;51.366;12.348;2022-07-29T00:53:05;1.30;;;1.00;;
18190;SDS011;47004;51.366;12.348;2022-07-29T00:55:09;1.27;;;0.80;;
18190;SDS011;47004;51.366;12.348;2022-07-29T00:57:12;2.63;;;0.90;;
18190;SDS011;47004;51.366;12.348;2022-07-29T00:59:14;1.70;;;0.90;;
18190;SDS011;47004;51.366;12.348;2022-07-29T01:01:16;2.20;;;1.00;;
18190;SDS011;47004;51.366;12.348;2022-07-29T01:03:19;1.40;;;1.10;;
18190;SDS011;47004;51.366;12.348;2022-07-29T01:05:22;2.27;;;1.10;;
18190;SDS011;47004;51.366;12.348;2022-07-29T01:07:26;1.10;;;1.00;;
18190;SDS011;47004;51.366;12.348;2022-07-29T01:09:29;1.77;;;1.20;;
18190;SDS011;47004;51.366;12.348;2022-07-29T01:11:33;2.60;;;1.10;;
18190;SDS011;47004;51.366;12.348;2022-07-29T01:13:36;2.40;;;1.20;;
18190;SDS011;47004;51.366;12.348;2022-07-29T01:15:39;1.73;;;0.90;;
18190;SDS011;47004;51.366;12.348;2022-07-29T01:17:45;1.90;;;0.90;;
18190;SDS011;47004;51.366;12.348;2022-07-29T01:19:56;1.57;;;0.90;;
18190;SDS011;47004;51.366;12.348;2022-07-29T01:22:08;1.67;;;1.10;;
18190;SDS011;47004;51.366;12.348;2022-07-29T01:24:32;1.50;;;1.03;;
18190;SDS011;47004;51.366;12.348;2022-07-29T01:26:41;1.47;;;0.93;;
18190;SDS011;47004;51.366;12.348;2022-07-29T01:28:51;1.17;;;0.93;;
18190;SDS011;47004;51.366;12.348;2022-07-29T01:31:00;3.20;;;0.97;;
18190;SDS011;47004;51.366;12.348;2022-07-29T01:33:06;1.77;;;1.10;;
18190;SDS011;47004;51.366;12.348;2022-07-29T01:35:38;1.60;;;1.20;;
18190;SDS011;47004;51.366;12.348;2022-07-29T01:37:43;1.77;;;1.00;;
18190;SDS011;47004;51.366;12.348;2022-07-29T01:39:48;2.50;;;1.10;;
18190;SDS011;47004;51.366;12.348;2022-07-29T01:41:58;1.40;;;0.90;;
18190;SDS011;47004;51.366;12.348;2022-07-29T01:44:11;1.77;;;1.00;;
18190;SDS011;47004;51.366;12.348;2022-07-29T01:46:17;3.00;;;1.20;;
18190;SDS011;47004;51.366;12.348;2022-07-29T01:48:27;1.83;;;0.90;;
18190;SDS011;47004;51.366;12.348;2022-07-29T01:50:37;2.30;;;1.10;;
18190;SDS011;47004;51.366;12.348;2022-07-29T01:52:44;1.67;;;0.80;;
18190;SDS011;47004;51.366;12.348;2022-07-29T01:54:52;2.07;;;1.03;;
18190;SDS011;47004;51.366;12.348;2022-07-29T01:56:58;1.40;;;1.13;;
18190;SDS011;47004;51.366;12.348;2022-07-29T01:59:02;1.23;;;0.93;;
18190;SDS011;47004;51.366;12.348;2022-07-29T02:01:07;1.97;;;1.10;;
18190;SDS011;47004;51.366;12.348;2022-07-29T02:03:11;3.60;;;1.10;;
18190;SDS011;47004;51.366;12.348;2022-07-29T02:05:15;1.37;;;1.00;;
18190;SDS011;47004;51.366;12.348;2022-07-29T02:07:19;2.20;;;1.20;;
18190;SDS011;47004;51.366;12.348;2022-07-29T02:09:22;2.63;;;1.10;;
18190;SDS011;47004;51.366;12.348;2022-07-29T02:11:26;1.17;;;1.00;;
18190;SDS011;47004;51.366;12.348;2022-07-29T02:13:29;3.10;;;1.30;;
18190;SDS011;47004;51.366;12.348;2022-07-29T02:15:33;1.53;;;1.10;;
18190;SDS011;47004;51.366;12.348;2022-07-29T02:17:39;2.57;;;1.40;;
18190;SDS011;47004;51.366;12.348;2022-07-29T02:19:43;2.67;;;1.20;;
18190;SDS011;47004;51.366;12.348;2022-07-29T02:21:47;1.57;;;1.07;;
18190;SDS011;47004;51.366;12.348;2022-07-29T02:23:52;2.63;;;1.27;;
18190;SDS011;47004;51.366;12.348;2022-07-29T02:25:56;2.40;;;1.10;;
18190;SDS011;47004;51.366;12.348;2022-07-29T02:27:58;2.90;;;1.20;;
18190;SDS011;47004;51.366;12.348;2022-07-29T02:30:02;1.53;;;1.00;;
18190;SDS011;47004;51.366;12.348;2022-07-29T02:32:05;3.80;;;1.20;;
18190;SDS011;47004;51.366;12.348;2022-07-29T02:34:11;3.83;;;1.10;;
18190;SDS011;47004;51.366;12.348;2022-07-29T02:36:14;2.80;;;1.10;;
18190;SDS011;47004;51.366;12.348;2022-07-29T02:38:18;1.53;;;1.10;;
18190;SDS011;47004;51.366;12.348;2022-07-29T02:40:38;1.73;;;1.30;;
18190;SDS011;47004;51.366;12.348;2022-07-29T02:42:43;2.20;;;1.20;;
18190;SDS011;47004;51.366;12.348;2022-07-29T02:44:46;1.40;;;1.20;;
18190;SDS011;47004;51.366;12.348;2022-07-29T02:46:49;1.93;;;1.03;;
18190;SDS011;47004;51.366;12.348;2022-07-29T02:48:55;2.43;;;1.10;;
18190;SDS011;47004;51.366;12.348;2022-07-29T02:51:04;4.13;;;1.30;;
18190;SDS011;47004;51.366;12.348;2022-07-29T02:53:11;1.77;;;1.10;;
18190;SDS011;47004;51.366;12.348;2022-07-29T02:55:18;2.53;;;1.63;;
18190;SDS011;47004;51.366;12.348;2022-07-29T02:57:30;3.53;;;1.27;;
18190;SDS011;47004;51.366;12.348;2022-07-29T02:59:36;2.70;;;1.03;;
18190;SDS011;47004;51.366;12.348;2022-07-29T03:01:42;1.20;;;1.00;;
18190;SDS011;47004;51.366;12.348;2022-07-29T03:03:45;2.70;;;1.03;;
18190;SDS011;47004;51.366;12.348;2022-07-29T03:05:49;1.40;;;0.90;;
18190;SDS011;47004;51.366;12.348;2022-07-29T03:07:57;2.23;;;1.20;;
18190;SDS011;47004;51.366;12.348;2022-07-29T03:10:00;2.23;;;1.10;;
18190;SDS011;47004;51.366;12.348;2022-07-29T03:12:03;1.47;;;0.90;;
18190;SDS011;47004;51.366;12.348;2022-07-29T03:14:06;1.37;;;1.00;;
18190;SDS011;47004;51.366;12.348;2022-07-29T03:16:08;2.33;;;0.90;;
18190;SDS011;47004;51.366;12.348;2022-07-29T03:18:11;1.93;;;1.20;;
18190;SDS011;47004;51.366;12.348;2022-07-29T03:20:14;1.60;;;1.00;;
18190;SDS011;47004;51.366;12.348;2022-07-29T03:22:16;2.63;;;1.30;;
18190;SDS011;47004;51.366;12.348;2022-07-29T03:24:26;2.27;;;1.20;;
18190;SDS011;47004;51.366;12.348;2022-07-29T03:26:30;1.47;;;1.27;;
18190;SDS011;47004;51.366;12.348;2022-07-29T03:28:32;1.50;;;0.90;;
18190;SDS011;47004;51.366;12.348;2022-07-29T03:30:34;2.40;;;1.43;;
18190;SDS011;47004;51.366;12.348;2022-07-29T03:32:36;1.77;;;1.20;;
18190;SDS011;47004;51.366;12.348;2022-07-29T03:34:38;2.13;;;1.17;;
18190;SDS011;47004;51.366;12.348;2022-07-29T03:36:40;1.20;;;1.10;;
18190;SDS011;47004;51.366;12.348;2022-07-29T03:38:42;2.13;;;1.23;;
18190;SDS011;47004;51.366;12.348;2022-07-29T03:40:48;1.70;;;0.90;;
18190;SDS011;47004;51.366;12.348;2022-07-29T03:42:54;1.30;;;1.00;;
18190;SDS011;47004;51.366;12.348;2022-07-29T03:44:57;1.53;;;1.17;;
18190;SDS011;47004;51.366;12.348;2022-07-29T03:47:03;3.60;;;1.20;;
18190;SDS011;47004;51.366;12.348;2022-07-29T03:49:07;1.93;;;1.10;;
18190;SDS011;47004;51.366;12.348;2022-07-29T03:51:10;2.40;;;1.20;;
18190;SDS011;47004;51.366;12.348;2022-07-29T03:53:12;1.97;;;1.07;;
18190;SDS011;47004;51.366;12.348;2022-07-29T03:55:14;2.17;;;1.13;;
18190;SDS011;47004;51.366;12.348;2022-07-29T03:57:18;1.50;;;1.20;;
18190;SDS011;47004;51.366;12.348;2022-07-29T03:59:24;2.03;;;1.10;;
18190;SDS011;47004;51.366;12.348;2022-07-29T04:01:28;1.77;;;1.13;;
18190;SDS011;47004;51.366;12.348;2022-07-29T04:03:33;2.30;;;1.10;;
18190;SDS011;47004;51.366;12.348;2022-07-29T04:05:36;1.60;;;0.90;;
18190;SDS011;47004;51.366;12.348;2022-07-29T04:07:38;2.13;;;1.00;;
18190;SDS011;47004;51.366;12.348;2022-07-29T04:09:40;2.70;;;1.00;;
18190;SDS011;47004;51.366;12.348;2022-07-29T04:11:42;1.60;;;1.00;;
18190;SDS011;47004;51.366;12.348;2022-07-29T04:13:47;1.23;;;1.13;;
18190;SDS011;47004;51.366;12.348;2022-07-29T04:15:49;1.70;;;1.10;;
18190;SDS011;47004;51.366;12.348;2022-07-29T04:17:51;1.87;;;1.00;;
18190;SDS011;47004;51.366;12.348;2022-07-29T04:19:53;2.73;;;1.13;;
18190;SDS011;47004;51.366;12.348;2022-07-29T04:21:55;1.27;;;1.03;;
18190;SDS011;47004;51.366;12.348;2022-07-29T04:23:58;1.67;;;1.20;;
18190;SDS011;47004;51.366;12.348;2022-07-29T04:26:00;3.43;;;1.40;;
18190;SDS011;47004;51.366;12.348;2022-07-29T04:28:02;1.57;;;1.00;;
18190;SDS011;47004;51.366;12.348;2022-07-29T04:30:06;4.00;;;1.40;;
18190;SDS011;47004;51.366;12.348;2022-07-29T04:32:12;2.77;;;1.30;;
18190;SDS011;47004;51.366;12.348;2022-07-29T04:34:14;2.40;;;1.10;;
18190;SDS011;47004;51.366;12.348;2022-07-29T04:36:16;1.70;;;1.27;;
18190;SDS011;47004;51.366;12.348;2022-07-29T04:38:18;1.33;;;1.10;;
18190;SDS011;47004;51.366;12.348;2022-07-29T04:40:20;4.10;;;1.30;;
18190;SDS011;47004;51.366;12.348;2022-07-29T04:42:22;3.00;;;1.37;;
18190;SDS011;47004;51.366;12.348;2022-07-29T04:44:24;3.70;;;1.53;;
18190;SDS011;47004;51.366;12.348;2022-07-29T04:46:27;1.83;;;1.10;;
18190;SDS011;47004;51.366;12.348;2022-07-29T04:48:29;1.63;;;1.20;;
18190;SDS011;47004;51.366;12.348;2022-07-29T04:50:31;3.63;;;1.33;;
18190;SDS011;47004;51.366;12.348;2022-07-29T04:52:33;2.87;;;1.40;;
18190;SDS011;47004;51.366;12.348;2022-07-29T04:54:35;3.70;;;1.03;;
18190;SDS011;47004;51.366;12.348;2022-07-29T04:56:37;4.17;;;1.30;;
18190;SDS011;47004;51.366;12.348;2022-07-29T04:58:39;2.03;;;1.20;;
18190;SDS011;47004;51.366;12.348;2022-07-29T05:00:41;1.60;;;1.10;;
18190;SDS011;47004;51.366;12.348;2022-07-29T05:02:44;2.33;;;1.17;;
18190;SDS011;47004;51.366;12.348;2022-07-29T05:04:46;2.00;;;1.13;;
18190;SDS011;47004;51.366;12.348;2022-07-29T05:06:48;1.50;;;1.03;;
18190;SDS011;47004;51.366;12.348;2022-07-29T05:08:50;2.07;;;1.13;;
18190;SDS011;47004;51.366;12.348;2022-07-29T05:10:52;1.30;;;1.00;;
18190;SDS011;47004;51.366;12.348;2022-07-29T05:12:54;1.80;;;1.30;;
18190;SDS011;47004;51.366;12.348;2022-07-29T05:14:56;2.33;;;1.53;;
18190;SDS011;47004;51.366;12.348;2022-07-29T05:16:58;2.97;;;1.17;;
18190;SDS011;47004;51.366;12.348;2022-07-29T05:19:02;1.97;;;1.53;;
18190;SDS011;47004;51.366;12.348;2022-07-29T05:21:04;1.97;;;1.30;;
18190;SDS011;47004;51.366;12.348;2022-07-29T05:23:06;3.07;;;1.33;;
18190;SDS011;47004;51.366;12.348;2022-07-29T05:25:08;3.23;;;1.27;;
18190;SDS011;47004;51.366;12.348;2022-07-29T05:27:10;1.93;;;1.23;;
18190;SDS011;47004;51.366;12.348;2022-07-29T05:29:12;1.73;;;1.10;;
18190;SDS011;47004;51.366;12.348;2022-07-29T05:31:13;2.30;;;1.40;;
18190;SDS011;47004;51.366;12.348;2022-07-29T05:33:15;3.80;;;1.40;;
18190;SDS011;47004;51.366;12.348;2022-07-29T05:35:19;2.37;;;1.40;;
18190;SDS011;47004;51.366;12.348;2022-07-29T05:37:21;2.20;;;1.27;;
18190;SDS011;47004;51.366;12.348;2022-07-29T05:39:23;1.83;;;1.10;;
18190;SDS011;47004;51.366;12.348;2022-07-29T05:41:27;2.37;;;1.20;;
18190;SDS011;47004;51.366;12.348;2022-07-29T05:43:32;2.30;;;1.40;;
18190;SDS011;47004;51.366;12.348;2022-07-29T05:45:34;1.23;;;0.93;;
18190;SDS011;47004;51.366;12.348;2022-07-29T05:47:37;1.37;;;0.97;;
18190;SDS011;47004;51.366;12.348;2022-07-29T05:49:38;1.30;;;1.00;;
18190;SDS011;47004;51.366;12.348;2022-07-29T05:51:42;1.10;;;1.00;;
18190;SDS011;47004;51.366;12.348;2022-07-29T05:53:44;2.63;;;1.10;;
18190;SDS011;47004;51.366;12.348;2022-07-29T05:55:46;1.73;;;0.90;;
18190;SDS011;47004;51.366;12.348;2022-07-29T05:57:48;2.37;;;1.47;;
18190;SDS011;47004;51.366;12.348;2022-07-29T05:59:50;1.67;;;1.20;;
18190;SDS011;47004;51.366;12.348;2022-07-29T06:01:52;4.93;;;1.20;;
18190;SDS011;47004;51.366;12.348;2022-07-29T06:03:54;2.97;;;1.23;;
18190;SDS011;47004;51.366;12.348;2022-07-29T06:05:56;2.80;;;1.23;;
18190;SDS011;47004;51.366;12.348;2022-07-29T06:07:59;1.47;;;0.93;;
18190;SDS011;47004;51.366;12.348;2022-07-29T06:10:01;3.63;;;1.10;;
18190;SDS011;47004;51.366;12.348;2022-07-29T06:12:04;2.07;;;1.23;;
18190;SDS011;47004;51.366;12.348;2022-07-29T06:14:06;1.67;;;1.13;;
18190;SDS011;47004;51.366;12.348;2022-07-29T06:16:08;2.40;;;1.27;;
18190;SDS011;47004;51.366;12.348;2022-07-29T06:18:09;2.60;;;1.30;;
18190;SDS011;47004;51.366;12.348;2022-07-29T06:20:13;4.63;;;1.30;;
18190;SDS011;47004;51.366;12.348;2022-07-29T06:22:15;1.63;;;1.03;;
18190;SDS011;47004;51.366;12.348;2022-07-29T06:24:18;1.87;;;1.20;;
18190;SDS011;47004;51.366;12.348;2022-07-29T06:26:20;1.80;;;1.07;;
18190;SDS011;47004;51.366;12.348;2022-07-29T06:28:22;1.93;;;1.30;;
18190;SDS011;47004;51.366;12.348;2022-07-29T06:30:24;2.60;;;1.30;;
18190;SDS011;47004;51.366;12.348;2022-07-29T06:32:26;2.53;;;1.30;;
18190;SDS011;47004;51.366;12.348;2022-07-29T06:34:28;1.40;;;1.10;;
18190;SDS011;47004;51.366;12.348;2022-07-29T06:36:30;1.37;;;1.20;;
18190;SDS011;47004;51.366;12.348;2022-07-29T06:38:36;2.90;;;1.40;;
18190;SDS011;47004;51.366;12.348;2022-07-29T06:40:42;2.30;;;1.20;;
18190;SDS011;47004;51.366;12.348;2022-07-29T06:43:02;2.17;;;1.20;;
18190;SDS011;47004;51.366;12.348;2022-07-29T06:45:04;2.43;;;1.50;;
18190;SDS011;47004;51.366;12.348;2022-07-29T06:47:06;2.70;;;1.50;;
18190;SDS011;47004;51.366;12.348;2022-07-29T06:49:08;2.97;;;1.27;;
18190;SDS011;47004;51.366;12.348;2022-07-29T06:51:10;2.00;;;1.30;;
18190;SDS011;47004;51.366;12.348;2022-07-29T06:53:13;2.63;;;1.70;;
18190;SDS011;47004;51.366;12.348;2022-07-29T06:55:15;1.47;;;1.07;;
18190;SDS011;47004;51.366;12.348;2022-07-29T06:57:20;3.47;;;1.63;;
18190;SDS011;47004;51.366;12.348;2022-07-29T06:59:22;2.30;;;1.20;;
18190;SDS011;47004;51.366;12.348;2022-07-29T07:01:24;2.30;;;1.30;;
18190;SDS011;47004;51.366;12.348;2022-07-29T07:03:26;2.37;;;1.20;;
18190;SDS011;47004;51.366;12.348;2022-07-29T07:05:28;2.57;;;1.47;;
18190;SDS011;47004;51.366;12.348;2022-07-29T07:07:30;2.23;;;1.30;;
18190;SDS011;47004;51.366;12.348;2022-07-29T07:09:32;3.67;;;1.40;;
18190;SDS011;47004;51.366;12.348;2022-07-29T07:11:34;2.53;;;1.30;;
18190;SDS011;47004;51.366;12.348;2022-07-29T07:13:38;2.77;;;1.30;;
18190;SDS011;47004;51.366;12.348;2022-07-29T07:15:40;2.60;;;1.43;;
18190;SDS011;47004;51.366;12.348;2022-07-29T07:17:42;2.53;;;1.40;;
18190;SDS011;47004;51.366;12.348;2022-07-29T07:19:44;2.23;;;1.40;;
18190;SDS011;47004;51.366;12.348;2022-07-29T07:21:46;2.77;;;1.50;;
18190;SDS011;47004;51.366;12.348;2022-07-29T07:23:48;2.10;;;1.60;;
18190;SDS011;47004;51.366;12.348;2022-07-29T07:25:50;1.80;;;1.27;;
18190;SDS011;47004;51.366;12.348;2022-07-29T07:27:52;3.30;;;1.57;;
18190;SDS011;47004;51.366;12.348;2022-07-29T07:29:55;2.67;;;1.80;;
18190;SDS011;47004;51.366;12.348;2022-07-29T07:31:57;5.17;;;1.97;;
18190;SDS011;47004;51.366;12.348;2022-07-29T07:33:59;4.27;;;2.27;;
18190;SDS011;47004;51.366;12.348;2022-07-29T07:36:01;2.67;;;1.77;;
18190;SDS011;47004;51.366;12.348;2022-07-29T07:38:04;3.90;;;2.37;;
18190;SDS011;47004;51.366;12.348;2022-07-29T07:40:07;4.67;;;2.30;;
18190;SDS011;47004;51.366;12.348;2022-07-29T07:42:11;4.57;;;2.07;;
18190;SDS011;47004;51.366;12.348;2022-07-29T07:44:13;4.80;;;2.50;;
18190;SDS011;47004;51.366;12.348;2022-07-29T07:46:17;4.43;;;2.17;;
18190;SDS011;47004;51.366;12.348;2022-07-29T07:48:19;7.23;;;2.20;;
18190;SDS011;47004;51.366;12.348;2022-07-29T07:50:21;5.43;;;2.47;;
18190;SDS011;47004;51.366;12.348;2022-07-29T07:52:23;4.10;;;2.00;;
18190;SDS011;47004;51.366;12.348;2022-07-29T07:54:25;5.30;;;2.07;;
18190;SDS011;47004;51.366;12.348;2022-07-29T07:56:27;4.20;;;2.30;;
18190;SDS011;47004;51.366;12.348;2022-07-29T07:58:28;4.53;;;2.23;;
18190;SDS011;47004;51.366;12.348;2022-07-29T08:00:30;3.60;;;2.40;;
18190;SDS011;47004;51.366;12.348;2022-07-29T08:02:34;2.70;;;1.97;;
18190;SDS011;47004;51.366;12.348;2022-07-29T08:04:36;4.20;;;1.93;;
18190;SDS011;47004;51.366;12.348;2022-07-29T08:06:40;4.20;;;2.30;;
18190;SDS011;47004;51.366;12.348;2022-07-29T08:08:42;3.17;;;2.03;;
18190;SDS011;47004;51.366;12.348;2022-07-29T08:10:44;2.60;;;1.80;;
18190;SDS011;47004;51.366;12.348;2022-07-29T08:12:55;5.33;;;2.00;;
18190;SDS011;47004;51.366;12.348;2022-07-29T08:14:57;3.60;;;2.00;;
18190;SDS011;47004;51.366;12.348;2022-07-29T08:16:59;3.57;;;1.97;;
18190;SDS011;47004;51.366;12.348;2022-07-29T08:19:03;3.37;;;2.20;;
18190;SDS011;47004;51.366;12.348;2022-07-29T08:21:05;4.83;;;2.40;;
18190;SDS011;47004;51.366;12.348;2022-07-29T08:23:07;4.33;;;2.20;;
18190;SDS011;47004;51.366;12.348;2022-07-29T08:25:11;3.03;;;1.90;;
18190;SDS011;47004;51.366;12.348;2022-07-29T08:27:13;3.00;;;2.20;;
18190;SDS011;47004;51.366;12.348;2022-07-29T08:29:15;4.30;;;2.00;;
18190;SDS011;47004;51.366;12.348;2022-07-29T08:31:17;3.43;;;2.00;;
18190;SDS011;47004;51.366;12.348;2022-07-29T08:33:19;3.30;;;2.10;;
18190;SDS011;47004;51.366;12.348;2022-07-29T08:35:23;2.93;;;2.20;;
18190;SDS011;47004;51.366;12.348;2022-07-29T08:37:25;3.60;;;2.10;;
18190;SDS011;47004;51.366;12.348;2022-07-29T08:39:27;3.30;;;1.80;;
18190;SDS011;47004;51.366;12.348;2022-07-29T08:41:29;2.87;;;2.07;;
18190;SDS011;47004;51.366;12.348;2022-07-29T08:43:32;3.03;;;1.93;;
18190;SDS011;47004;51.366;12.348;2022-07-29T08:45:41;4.10;;;2.30;;
18190;SDS011;47004;51.366;12.348;2022-07-29T08:47:44;1.97;;;1.60;;
18190;SDS011;47004;51.366;12.348;2022-07-29T08:49:46;2.67;;;1.93;;
18190;SDS011;47004;51.366;12.348;2022-07-29T08:51:50;3.03;;;1.80;;
18190;SDS011;47004;51.366;12.348;2022-07-29T08:53:53;2.07;;;1.63;;
18190;SDS011;47004;51.366;12.348;2022-07-29T08:55:56;2.90;;;1.70;;
18190;SDS011;47004;51.366;12.348;2022-07-29T08:57:58;3.87;;;1.90;;
18190;SDS011;47004;51.366;12.348;2022-07-29T09:00:02;3.43;;;1.97;;
18190;SDS011;47004;51.366;12.348;2022-07-29T09:02:06;2.77;;;1.67;;
18190;SDS011;47004;51.366;12.348;2022-07-29T09:04:13;2.47;;;1.77;;
18190;SDS011;47004;51.366;12.348;2022-07-29T09:06:17;2.47;;;1.60;;
18190;SDS011;47004;51.366;12.348;2022-07-29T09:08:25;3.80;;;1.80;;
18190;SDS011;47004;51.366;12.348;2022-07-29T09:10:37;3.17;;;1.77;;
18190;SDS011;47004;51.366;12.348;2022-07-29T09:12:42;3.07;;;1.67;;
18190;SDS011;47004;51.366;12.348;2022-07-29T09:14:44;2.60;;;1.60;;
18190;SDS011;47004;51.366;12.348;2022-07-29T09:16:49;5.17;;;1.83;;
18190;SDS011;47004;51.366;12.348;2022-07-29T09:18:56;3.37;;;2.13;;
18190;SDS011;47004;51.366;12.348;2022-07-29T09:20:58;2.30;;;1.60;;
18190;SDS011;47004;51.366;12.348;2022-07-29T09:23:17;4.20;;;2.10;;
18190;SDS011;47004;51.366;12.348;2022-07-29T09:27:38;3.83;;;2.23;;
18190;SDS011;47004;51.366;12.348;2022-07-29T09:29:40;2.57;;;1.90;;
18190;SDS011;47004;51.366;12.348;2022-07-29T09:31:42;3.50;;;1.97;;
18190;SDS011;47004;51.366;12.348;2022-07-29T09:33:46;4.60;;;2.20;;
18190;SDS011;47004;51.366;12.348;2022-07-29T09:35:58;3.33;;;2.37;;
18190;SDS011;47004;51.366;12.348;2022-07-29T09:38:09;4.40;;;2.20;;
18190;SDS011;47004;51.366;12.348;2022-07-29T09:40:13;3.80;;;2.20;;
18190;SDS011;47004;51.366;12.348;2022-07-29T09:42:27;5.20;;;2.10;;
18190;SDS011;47004;51.366;12.348;2022-07-29T09:44:42;5.20;;;2.10;;
18190;SDS011;47004;51.366;12.348;2022-07-29T09:46:53;3.20;;;2.33;;
18190;SDS011;47004;51.366;12.348;2022-07-29T09:49:05;3.17;;;2.30;;
18190;SDS011;47004;51.366;12.348;2022-07-29T09:51:16;3.70;;;2.47;;
18190;SDS011;47004;51.366;12.348;2022-07-29T09:53:29;3.37;;;2.30;;
18190;SDS011;47004;51.366;12.348;2022-07-29T09:55:40;3.77;;;2.67;;
18190;SDS011;47004;51.366;12.348;2022-07-29T09:57:49;6.17;;;2.80;;
18190;SDS011;47004;51.366;12.348;2022-07-29T09:59:58;3.90;;;2.63;;
18190;SDS011;47004;51.366;12.348;2022-07-29T10:02:01;4.37;;;2.73;;
18190;SDS011;47004;51.366;12.348;2022-07-29T10:04:12;7.07;;;2.70;;
18190;SDS011;47004;51.366;12.348;2022-07-29T10:06:14;6.97;;;2.97;;
18190;SDS011;47004;51.366;12.348;2022-07-29T10:08:18;4.00;;;2.80;;
18190;SDS011;47004;51.366;12.348;2022-07-29T10:10:27;4.73;;;2.30;;
18190;SDS011;47004;51.366;12.348;2022-07-29T10:12:30;4.50;;;2.03;;
18190;SDS011;47004;51.366;12.348;2022-07-29T10:14:33;4.27;;;2.50;;
18190;SDS011;47004;51.366;12.348;2022-07-29T10:16:36;3.37;;;2.27;;
18190;SDS011;47004;51.366;12.348;2022-07-29T10:18:38;3.43;;;2.27;;
18190;SDS011;47004;51.366;12.348;2022-07-29T10:20:41;3.70;;;2.20;;
18190;SDS011;47004;51.366;12.348;2022-07-29T10:22:43;5.17;;;2.73;;
18190;SDS011;47004;51.366;12.348;2022-07-29T10:24:47;4.20;;;2.23;;
18190;SDS011;47004;51.366;12.348;2022-07-29T10:26:49;6.23;;;2.40;;
18190;SDS011;47004;51.366;12.348;2022-07-29T10:28:51;4.30;;;2.37;;
18190;SDS011;47004;51.366;12.348;2022-07-29T10:30:58;3.30;;;2.20;;
18190;SDS011;47004;51.366;12.348;2022-07-29T10:33:08;3.90;;;2.20;;
18190;SDS011;47004;51.366;12.348;2022-07-29T10:35:20;3.10;;;2.30;;
18190;SDS011;47004;51.366;12.348;2022-07-29T10:37:45;3.77;;;2.33;;
18190;SDS011;47004;51.366;12.348;2022-07-29T10:40:03;3.23;;;2.30;;
18190;SDS011;47004;51.366;12.348;2022-07-29T10:42:27;4.40;;;2.43;;
18190;SDS011;47004;51.366;12.348;2022-07-29T10:44:30;4.10;;;2.10;;
18190;SDS011;47004;51.366;12.348;2022-07-29T10:46:38;3.20;;;2.10;;
18190;SDS011;47004;51.366;12.348;2022-07-29T10:51:05;5.00;;;2.40;;
18190;SDS011;47004;51.366;12.348;2022-07-29T10:53:08;3.33;;;1.93;;
18190;SDS011;47004;51.366;12.348;2022-07-29T10:55:12;5.40;;;2.57;;
18190;SDS011;47004;51.366;12.348;2022-07-29T10:57:33;4.43;;;2.33;;
18190;SDS011;47004;51.366;12.348;2022-07-29T10:59:37;2.57;;;1.73;;
18190;SDS011;47004;51.366;12.348;2022-07-29T11:01:41;3.33;;;2.20;;
18190;SDS011;47004;51.366;12.348;2022-07-29T11:03:43;2.67;;;1.97;;
18190;SDS011;47004;51.366;12.348;2022-07-29T11:05:53;4.77;;;2.33;;
18190;SDS011;47004;51.366;12.348;2022-07-29T11:10:25;2.17;;;1.70;;
18190;SDS011;47004;51.366;12.348;2022-07-29T11:12:46;3.33;;;1.93;;
18190;SDS011;47004;51.366;12.348;2022-07-29T11:14:54;3.00;;;2.10;;
18190;SDS011;47004;51.366;12.348;2022-07-29T11:17:03;5.53;;;2.13;;
18190;SDS011;47004;51.366;12.348;2022-07-29T11:19:20;2.20;;;1.80;;
18190;SDS011;47004;51.366;12.348;2022-07-29T11:21:34;2.40;;;1.60;;
18190;SDS011;47004;51.366;12.348;2022-07-29T11:23:37;3.30;;;1.83;;
18190;SDS011;47004;51.366;12.348;2022-07-29T11:25:43;3.03;;;1.73;;
18190;SDS011;47004;51.366;12.348;2022-07-29T11:27:45;2.90;;;1.83;;
18190;SDS011;47004;51.366;12.348;2022-07-29T11:29:49;2.90;;;1.70;;
18190;SDS011;47004;51.366;12.348;2022-07-29T11:31:55;3.15;;;1.92;;
18190;SDS011;47004;51.366;12.348;2022-07-29T11:34:19;2.87;;;1.90;;
18190;SDS011;47004;51.366;12.348;2022-07-29T11:36:22;3.50;;;1.60;;
18190;SDS011;47004;51.366;12.348;2022-07-29T11:38:24;2.42;;;1.83;;
18190;SDS011;47004;51.366;12.348;2022-07-29T11:40:28;2.67;;;1.65;;
18190;SDS011;47004;51.366;12.348;2022-07-29T11:42:40;4.03;;;1.73;;
18190;SDS011;47004;51.366;12.348;2022-07-29T11:44:55;5.90;;;1.75;;
18190;SDS011;47004;51.366;12.348;2022-07-29T11:46:58;1.80;;;1.40;;
18190;SDS011;47004;51.366;12.348;2022-07-29T11:49:01;2.45;;;1.73;;
18190;SDS011;47004;51.366;12.348;2022-07-29T11:51:08;2.05;;;1.70;;
18190;SDS011;47004;51.366;12.348;2022-07-29T11:53:11;3.00;;;1.73;;
18190;SDS011;47004;51.366;12.348;2022-07-29T11:55:15;3.33;;;1.58;;
18190;SDS011;47004;51.366;12.348;2022-07-29T11:57:19;3.35;;;1.83;;
18190;SDS011;47004;51.366;12.348;2022-07-29T11:59:22;3.30;;;1.70;;
18190;SDS011;47004;51.366;12.348;2022-07-29T12:01:27;3.05;;;1.95;;
18190;SDS011;47004;51.366;12.348;2022-07-29T12:03:29;2.67;;;1.60;;
18190;SDS011;47004;51.366;12.348;2022-07-29T12:05:34;2.80;;;1.88;;
18190;SDS011;47004;51.366;12.348;2022-07-29T12:07:38;4.78;;;1.80;;
18190;SDS011;47004;51.366;12.348;2022-07-29T12:09:46;3.50;;;1.83;;
18190;SDS011;47004;51.366;12.348;2022-07-29T12:11:56;3.85;;;1.92;;
18190;SDS011;47004;51.366;12.348;2022-07-29T12:13:58;2.60;;;1.85;;
18190;SDS011;47004;51.366;12.348;2022-07-29T12:16:00;2.65;;;1.73;;
18190;SDS011;47004;51.366;12.348;2022-07-29T12:18:12;2.78;;;1.95;;
18190;SDS011;47004;51.366;12.348;2022-07-29T12:20:21;2.22;;;1.70;;
18190;SDS011;47004;51.366;12.348;2022-07-29T12:22:26;4.70;;;1.92;;
18190;SDS011;47004;51.366;12.348;2022-07-29T12:24:42;2.63;;;1.90;;
18190;SDS011;47004;51.366;12.348;2022-07-29T12:26:51;3.20;;;2.17;;